Home   Weather   Norway   Oslo   Past weeks
Flag for Norway

Past Weather in Oslo, Norway — Yesterday and Last 2 Weeks

Currently: 63 °F. Sunny. (Weather station: Oslo Gardermoen Airport, Norway). See more current weather

Past Weather in Oslo — Graph

°F

Oslo Temperature Yesterday

Maximum temperature yesterday: 79 °F (at 5:20 pm)
Minimum temperature yesterday: 57 °F (at 2:50 am)
Average temperature yesterday: 68 °F

High & Low Weather Summary for the Past Weeks

 TemperatureHumidityPressure
High79 °F (Jun 23, 4:20 pm)100% (Jun 17, 11:20 pm)30.07 "Hg (Jun 17, 11:20 pm)
Low45 °F (Jun 19, 4:50 am)25% (Jun 18, 12:20 pm)29.65 "Hg (Jun 18, 4:20 pm)
Average61 °F62%29.83 "Hg
* Reported Jun 10 6:20 am — Jun 25 6:20 am, Oslo. Weather by CustomWeather, © 2022

Note: Actual official high and low records may vary slightly from our data, if they occured in-between our weather recording intervals... More about our weather records

Oslo Weather History for the Previous 24 Hours

Scroll right to see more
 ConditionsComfort  
Time TempWeatherWind HumidityBarometerVisibility
6:20 am
Sat, Jun 25
59 °FSunny.3 mph77%29.89 "Hg10 mi
5:20 am57 °FSunny.3 mph77%29.86 "Hg10 mi
4:50 am55 °FPassing clouds.3 mph77%29.86 "HgN/A
4:20 am57 °FSunny.3 mph77%29.86 "Hg10 mi
3:50 am57 °FSunny.5 mph77%29.86 "Hg10 mi
3:20 am57 °FClear.3 mph77%29.86 "Hg10 mi
2:50 am57 °FClear.3 mph82%29.86 "Hg10 mi
1:20 am61 °FClear.3 mph63%29.86 "Hg10 mi
12:50 am64 °FClear.No wind60%29.86 "Hg10 mi
12:20 am66 °FClear.No wind49%29.86 "Hg10 mi
11:50 pm
Fri, Jun 24
68 °FClear.No wind49%29.86 "Hg10 mi
11:20 pm70 °FPassing clouds.6 mph46%29.86 "HgN/A
10:50 pm72 °FClear.8 mph47%29.86 "Hg10 mi
10:20 pm73 °FSunny.12 mph44%29.86 "Hg10 mi
9:50 pm75 °FSunny.12 mph44%29.83 "Hg10 mi
9:20 pm77 °FPassing clouds.6 mph44%29.83 "HgN/A
8:50 pm79 °FPassing clouds.5 mph42%29.83 "HgN/A
8:20 pm79 °FPassing clouds.6 mph39%29.83 "HgN/A
7:50 pm79 °FSunny.2 mph39%29.83 "Hg10 mi
7:20 pm79 °FPassing clouds.3 mph39%29.83 "HgN/A
6:50 pm79 °FSunny.5 mph39%29.83 "Hg10 mi
6:20 pm79 °FPassing clouds.9 mph39%29.83 "HgN/A
5:50 pm79 °FPassing clouds.6 mph39%29.86 "HgN/A
5:20 pm79 °FPassing clouds.8 mph42%29.86 "HgN/A
4:50 pm77 °FPassing clouds.10 mph44%29.86 "HgN/A
4:20 pm77 °FPassing clouds.9 mph44%29.86 "HgN/A
3:50 pm77 °FPassing clouds.9 mph42%29.89 "HgN/A
2:50 pm77 °FPassing clouds.8 mph47%29.89 "HgN/A
2:20 pm75 °FPassing clouds.8 mph47%29.89 "HgN/A
1:50 pm75 °FPassing clouds.8 mph50%29.89 "HgN/A
12:50 pm72 °FPassing clouds.8 mph61%29.92 "HgN/A
12:20 pm70 °FPassing clouds.7 mph60%29.92 "HgN/A
11:50 am68 °FPassing clouds.6 mph64%29.92 "HgN/A
11:20 am64 °FScattered clouds.5 mph73%29.92 "HgN/A
10:50 am64 °FScattered clouds.6 mph73%29.95 "HgN/A
9:50 am61 °FPartly sunny.7 mph83%29.92 "HgN/A
9:20 am59 °FPartly sunny.7 mph88%29.92 "HgN/A
8:50 am59 °FPartly sunny.7 mph88%29.92 "HgN/A
8:20 am59 °FPartly sunny.8 mph88%29.92 "HgN/A
7:50 am59 °FPartly sunny.8 mph88%29.92 "Hg6 mi
Weather by CustomWeather, © 2022

See weather overview